sensor_id;sensor_type;location;lat;lon;timestamp;pressure;altitude;pressure_sealevel;temperature;humidity
68822;BME280;55834;50.870;4.606;2023-07-08T00:00:11;100853.31;;;20.27;40.09
68822;BME280;55834;50.870;4.606;2023-07-08T00:02:36;100860.25;;;20.17;39.74
68822;BME280;55834;50.870;4.606;2023-07-08T00:05:02;100855.97;;;20.14;40.16
68822;BME280;55834;50.870;4.606;2023-07-08T00:07:27;100855.41;;;20.09;40.01
68822;BME280;55834;50.870;4.606;2023-07-08T00:09:52;100852.19;;;20.04;40.31
68822;BME280;55834;50.870;4.606;2023-07-08T00:12:18;100854.69;;;19.93;41.04
68822;BME280;55834;50.870;4.606;2023-07-08T00:14:43;100851.94;;;19.94;40.56
68822;BME280;55834;50.870;4.606;2023-07-08T00:17:12;100846.66;;;19.93;40.36
68822;BME280;55834;50.870;4.606;2023-07-08T00:19:38;100849.44;;;19.91;40.60
68822;BME280;55834;50.870;4.606;2023-07-08T00:22:13;100844.16;;;19.90;41.05
68822;BME280;55834;50.870;4.606;2023-07-08T00:24:41;100841.97;;;19.82;40.80
68822;BME280;55834;50.870;4.606;2023-07-08T00:27:09;100846.13;;;19.73;41.31
68822;BME280;55834;50.870;4.606;2023-07-08T00:29:36;100841.94;;;19.69;41.55
68822;BME280;55834;50.870;4.606;2023-07-08T00:32:01;100839.75;;;19.61;41.62
68822;BME280;55834;50.870;4.606;2023-07-08T00:34:26;100835.44;;;19.59;41.86
68822;BME280;55834;50.870;4.606;2023-07-08T00:36:52;100841.31;;;19.51;42.58
68822;BME280;55834;50.870;4.606;2023-07-08T00:39:17;100843.38;;;19.33;42.66
68822;BME280;55834;50.870;4.606;2023-07-08T00:41:43;100848.34;;;19.25;42.84
68822;BME280;55834;50.870;4.606;2023-07-08T00:44:11;100842.13;;;19.25;42.62
68822;BME280;55834;50.870;4.606;2023-07-08T00:46:46;100839.91;;;19.31;42.92
68822;BME280;55834;50.870;4.606;2023-07-08T00:49:24;100838.38;;;19.13;42.18
68822;BME280;55834;50.870;4.606;2023-07-08T00:51:51;100839.03;;;19.16;43.34
68822;BME280;55834;50.870;4.606;2023-07-08T00:54:19;100839.03;;;19.02;43.20
68822;BME280;55834;50.870;4.606;2023-07-08T00:59:36;100831.28;;;19.12;43.36
68822;BME280;55834;50.870;4.606;2023-07-08T01:02:05;100826.44;;;19.04;43.37
68822;BME280;55834;50.870;4.606;2023-07-08T01:04:34;100823.84;;;19.03;43.42
68822;BME280;55834;50.870;4.606;2023-07-08T01:07:03;100820.78;;;19.09;42.23
68822;BME280;55834;50.870;4.606;2023-07-08T01:09:44;100829.28;;;19.15;42.45
68822;BME280;55834;50.870;4.606;2023-07-08T01:12:13;100830.72;;;19.07;43.31
68822;BME280;55834;50.870;4.606;2023-07-08T01:14:41;100825.66;;;18.74;42.97
68822;BME280;55834;50.870;4.606;2023-07-08T01:17:08;100832.91;;;18.86;43.86
68822;BME280;55834;50.870;4.606;2023-07-08T01:19:39;100827.28;;;18.90;43.00
68822;BME280;55834;50.870;4.606;2023-07-08T01:22:06;100825.84;;;18.85;42.98
68822;BME280;55834;50.870;4.606;2023-07-08T01:24:34;100820.50;;;18.85;43.05
68822;BME280;55834;50.870;4.606;2023-07-08T01:27:02;100816.00;;;18.85;42.92
68822;BME280;55834;50.870;4.606;2023-07-08T01:29:29;100820.59;;;18.83;43.30
68822;BME280;55834;50.870;4.606;2023-07-08T01:31:58;100814.66;;;18.78;43.44
68822;BME280;55834;50.870;4.606;2023-07-08T01:34:28;100819.72;;;18.68;43.58
68822;BME280;55834;50.870;4.606;2023-07-08T01:36:55;100818.75;;;18.69;43.64
68822;BME280;55834;50.870;4.606;2023-07-08T01:39:28;100807.91;;;18.73;43.34
68822;BME280;55834;50.870;4.606;2023-07-08T01:41:55;100806.53;;;18.65;43.34
68822;BME280;55834;50.870;4.606;2023-07-08T01:46:52;100797.84;;;18.62;43.63
68822;BME280;55834;50.870;4.606;2023-07-08T01:49:20;100802.91;;;18.66;44.10
68822;BME280;55834;50.870;4.606;2023-07-08T01:51:46;100797.00;;;18.61;43.71
68822;BME280;55834;50.870;4.606;2023-07-08T01:54:12;100803.94;;;18.49;43.94
68822;BME280;55834;50.870;4.606;2023-07-08T01:56:37;100810.91;;;18.52;44.31
68822;BME280;55834;50.870;4.606;2023-07-08T01:59:03;100803.97;;;18.34;43.60
68822;BME280;55834;50.870;4.606;2023-07-08T02:01:28;100799.84;;;18.28;44.16
68822;BME280;55834;50.870;4.606;2023-07-08T02:03:53;100802.06;;;18.36;44.32
68822;BME280;55834;50.870;4.606;2023-07-08T02:06:19;100791.88;;;18.42;43.94
68822;BME280;55834;50.870;4.606;2023-07-08T02:08:44;100792.84;;;18.41;43.82
68822;BME280;55834;50.870;4.606;2023-07-08T02:11:09;100791.00;;;18.42;43.55
68822;BME280;55834;50.870;4.606;2023-07-08T02:13:35;100799.09;;;18.40;43.96
68822;BME280;55834;50.870;4.606;2023-07-08T02:16:00;100793.19;;;18.35;43.98
68822;BME280;55834;50.870;4.606;2023-07-08T02:18:25;100783.38;;;18.36;44.19
68822;BME280;55834;50.870;4.606;2023-07-08T02:20:51;100782.88;;;18.29;43.96
68822;BME280;55834;50.870;4.606;2023-07-08T02:23:16;100782.28;;;18.24;44.05
68822;BME280;55834;50.870;4.606;2023-07-08T02:25:52;100784.84;;;18.25;44.60
68822;BME280;55834;50.870;4.606;2023-07-08T02:28:18;100790.50;;;18.21;43.81
68822;BME280;55834;50.870;4.606;2023-07-08T02:30:44;100793.25;;;18.19;43.75
68822;BME280;55834;50.870;4.606;2023-07-08T02:33:11;100797.66;;;18.20;43.71
68822;BME280;55834;50.870;4.606;2023-07-08T02:35:36;100792.47;;;18.17;44.47
68822;BME280;55834;50.870;4.606;2023-07-08T02:38:01;100795.78;;;18.07;44.55
68822;BME280;55834;50.870;4.606;2023-07-08T02:40:28;100797.69;;;18.04;44.40
68822;BME280;55834;50.870;4.606;2023-07-08T02:42:54;100804.56;;;18.09;44.66
68822;BME280;55834;50.870;4.606;2023-07-08T02:45:19;100810.69;;;18.11;44.48
68822;BME280;55834;50.870;4.606;2023-07-08T02:47:45;100804.47;;;18.10;44.48
68822;BME280;55834;50.870;4.606;2023-07-08T02:50:11;100813.16;;;18.14;44.69
68822;BME280;55834;50.870;4.606;2023-07-08T02:52:37;100811.16;;;18.17;45.03
68822;BME280;55834;50.870;4.606;2023-07-08T02:55:03;100804.66;;;18.07;45.52
68822;BME280;55834;50.870;4.606;2023-07-08T02:57:28;100815.25;;;18.09;45.69
68822;BME280;55834;50.870;4.606;2023-07-08T02:59:53;100813.28;;;18.12;45.21
68822;BME280;55834;50.870;4.606;2023-07-08T03:02:19;100819.28;;;18.16;45.08
68822;BME280;55834;50.870;4.606;2023-07-08T03:04:44;100812.81;;;18.20;45.72
68822;BME280;55834;50.870;4.606;2023-07-08T03:07:10;100810.31;;;18.17;45.58
68822;BME280;55834;50.870;4.606;2023-07-08T03:09:37;100814.94;;;17.99;46.06
68822;BME280;55834;50.870;4.606;2023-07-08T03:12:02;100817.00;;;17.94;46.76
68822;BME280;55834;50.870;4.606;2023-07-08T03:14:27;100818.47;;;17.99;46.83
68822;BME280;55834;50.870;4.606;2023-07-08T03:16:53;100821.84;;;18.03;46.55
68822;BME280;55834;50.870;4.606;2023-07-08T03:19:18;100815.34;;;18.07;46.92
68822;BME280;55834;50.870;4.606;2023-07-08T03:21:45;100818.88;;;18.08;46.76
68822;BME280;55834;50.870;4.606;2023-07-08T03:24:11;100819.91;;;18.05;46.33
68822;BME280;55834;50.870;4.606;2023-07-08T03:26:37;100819.84;;;17.91;46.88
68822;BME280;55834;50.870;4.606;2023-07-08T03:29:02;100819.44;;;17.83;47.58
68822;BME280;55834;50.870;4.606;2023-07-08T03:31:28;100814.50;;;17.91;48.11
68822;BME280;55834;50.870;4.606;2023-07-08T03:33:53;100815.97;;;17.96;47.86
68822;BME280;55834;50.870;4.606;2023-07-08T03:36:19;100819.41;;;17.98;47.49
68822;BME280;55834;50.870;4.606;2023-07-08T03:38:55;100821.06;;;17.85;47.08
68822;BME280;55834;50.870;4.606;2023-07-08T03:41:21;100810.91;;;17.76;46.95
68822;BME280;55834;50.870;4.606;2023-07-08T03:43:47;100814.19;;;17.81;47.41
68822;BME280;55834;50.870;4.606;2023-07-08T03:46:14;100808.59;;;17.86;47.15
68822;BME280;55834;50.870;4.606;2023-07-08T03:48:40;100808.69;;;17.84;46.86
68822;BME280;55834;50.870;4.606;2023-07-08T03:51:24;100809.97;;;17.77;46.98
68822;BME280;55834;50.870;4.606;2023-07-08T03:53:51;100815.63;;;17.71;47.21
68822;BME280;55834;50.870;4.606;2023-07-08T03:56:17;100811.25;;;17.70;46.79
68822;BME280;55834;50.870;4.606;2023-07-08T03:58:42;100805.97;;;17.68;47.69
68822;BME280;55834;50.870;4.606;2023-07-08T04:01:14;100808.81;;;17.65;47.39
68822;BME280;55834;50.870;4.606;2023-07-08T04:03:40;100801.53;;;17.69;47.50
68822;BME280;55834;50.870;4.606;2023-07-08T04:06:05;100798.69;;;17.72;47.18
68822;BME280;55834;50.870;4.606;2023-07-08T04:08:31;100801.34;;;17.72;47.72
68822;BME280;55834;50.870;4.606;2023-07-08T04:10:56;100799.97;;;17.65;47.09
68822;BME280;55834;50.870;4.606;2023-07-08T04:13:21;100795.31;;;17.68;47.49
68822;BME280;55834;50.870;4.606;2023-07-08T04:15:52;100799.44;;;17.74;47.81
68822;BME280;55834;50.870;4.606;2023-07-08T04:18:20;100806.59;;;17.73;47.56
68822;BME280;55834;50.870;4.606;2023-07-08T04:20:45;100807.81;;;17.52;48.03
68822;BME280;55834;50.870;4.606;2023-07-08T04:23:20;100803.25;;;17.22;49.67
68822;BME280;55834;50.870;4.606;2023-07-08T04:25:47;100802.41;;;17.38;49.01
68822;BME280;55834;50.870;4.606;2023-07-08T04:28:13;100806.06;;;17.51;49.07
68822;BME280;55834;50.870;4.606;2023-07-08T04:30:38;100804.63;;;17.61;48.72
68822;BME280;55834;50.870;4.606;2023-07-08T04:33:14;100798.44;;;17.29;49.23
68822;BME280;55834;50.870;4.606;2023-07-08T04:35:40;100786.28;;;17.39;48.89
68822;BME280;55834;50.870;4.606;2023-07-08T04:38:08;100801.28;;;17.57;49.44
68822;BME280;55834;50.870;4.606;2023-07-08T04:40:42;100805.13;;;17.68;49.57
68822;BME280;55834;50.870;4.606;2023-07-08T04:43:08;100796.38;;;17.81;48.81
68822;BME280;55834;50.870;4.606;2023-07-08T04:45:36;100802.47;;;17.84;49.21
68822;BME280;55834;50.870;4.606;2023-07-08T04:48:03;100800.63;;;18.00;49.19
68822;BME280;55834;50.870;4.606;2023-07-08T04:50:43;100804.53;;;18.24;48.48
68822;BME280;55834;50.870;4.606;2023-07-08T04:53:09;100807.91;;;18.42;48.30
68822;BME280;55834;50.870;4.606;2023-07-08T04:55:57;100798.78;;;18.61;47.41
68822;BME280;55834;50.870;4.606;2023-07-08T04:58:23;100799.09;;;18.85;47.52
68822;BME280;55834;50.870;4.606;2023-07-08T05:00:49;100807.72;;;19.04;47.43
68822;BME280;55834;50.870;4.606;2023-07-08T05:03:14;100806.44;;;19.24;46.79
68822;BME280;55834;50.870;4.606;2023-07-08T05:05:40;100807.31;;;19.39;46.48
68822;BME280;55834;50.870;4.606;2023-07-08T05:08:06;100805.53;;;19.52;46.10
68822;BME280;55834;50.870;4.606;2023-07-08T05:10:31;100806.34;;;19.67;45.79
68822;BME280;55834;50.870;4.606;2023-07-08T05:12:56;100804.47;;;19.82;46.67
68822;BME280;55834;50.870;4.606;2023-07-08T05:15:22;100802.66;;;19.97;45.95
68822;BME280;55834;50.870;4.606;2023-07-08T05:17:47;100808.69;;;20.13;46.01
68822;BME280;55834;50.870;4.606;2023-07-08T05:20:14;100802.47;;;20.25;45.22
68822;BME280;55834;50.870;4.606;2023-07-08T05:22:39;100811.31;;;20.40;45.16
68822;BME280;55834;50.870;4.606;2023-07-08T05:25:05;100811.19;;;20.55;45.11
68822;BME280;55834;50.870;4.606;2023-07-08T05:27:31;100809.63;;;20.65;44.85
68822;BME280;55834;50.870;4.606;2023-07-08T05:29:59;100807.81;;;20.78;44.79
68822;BME280;55834;50.870;4.606;2023-07-08T05:32:24;100804.13;;;20.92;43.92
68822;BME280;55834;50.870;4.606;2023-07-08T05:34:51;100798.03;;;21.03;44.23
68822;BME280;55834;50.870;4.606;2023-07-08T05:37:20;100808.31;;;21.22;43.99
68822;BME280;55834;50.870;4.606;2023-07-08T05:39:50;100805.50;;;21.36;43.23
68822;BME280;55834;50.870;4.606;2023-07-08T05:42:15;100797.50;;;21.47;43.03
68822;BME280;55834;50.870;4.606;2023-07-08T05:44:41;100799.16;;;21.61;43.34
68822;BME280;55834;50.870;4.606;2023-07-08T05:47:06;100796.22;;;21.77;42.97
68822;BME280;55834;50.870;4.606;2023-07-08T05:49:31;100793.44;;;21.90;42.77
68822;BME280;55834;50.870;4.606;2023-07-08T05:51:57;100797.44;;;21.97;41.79
68822;BME280;55834;50.870;4.606;2023-07-08T05:54:22;100799.69;;;22.14;42.21
68822;BME280;55834;50.870;4.606;2023-07-08T05:56:48;100800.34;;;22.29;42.12
68822;BME280;55834;50.870;4.606;2023-07-08T05:59:13;100804.78;;;22.41;42.00
68822;BME280;55834;50.870;4.606;2023-07-08T06:01:38;100800.28;;;22.53;42.53
68822;BME280;55834;50.870;4.606;2023-07-08T06:04:04;100796.28;;;22.70;42.08
68822;BME280;55834;50.870;4.606;2023-07-08T06:06:29;100806.81;;;22.84;41.81
68822;BME280;55834;50.870;4.606;2023-07-08T06:08:55;100802.41;;;22.94;41.34
68822;BME280;55834;50.870;4.606;2023-07-08T06:11:20;100803.28;;;22.95;41.06
68822;BME280;55834;50.870;4.606;2023-07-08T06:13:47;100800.47;;;23.08;40.88
68822;BME280;55834;50.870;4.606;2023-07-08T06:16:12;100798.50;;;23.21;40.76
68822;BME280;55834;50.870;4.606;2023-07-08T06:18:38;100798.03;;;23.38;40.42
68822;BME280;55834;50.870;4.606;2023-07-08T06:21:03;100792.56;;;23.50;39.45
68822;BME280;55834;50.870;4.606;2023-07-08T06:23:29;100793.53;;;23.60;39.64
68822;BME280;55834;50.870;4.606;2023-07-08T06:25:55;100799.75;;;23.72;39.35
68822;BME280;55834;50.870;4.606;2023-07-08T06:28:21;100797.38;;;23.90;39.35
68822;BME280;55834;50.870;4.606;2023-07-08T06:30:47;100792.22;;;23.98;37.33
68822;BME280;55834;50.870;4.606;2023-07-08T06:33:13;100788.59;;;24.08;38.66
68822;BME280;55834;50.870;4.606;2023-07-08T06:35:39;100792.69;;;24.24;38.31
68822;BME280;55834;50.870;4.606;2023-07-08T06:38:05;100791.25;;;24.41;38.25
68822;BME280;55834;50.870;4.606;2023-07-08T06:40:31;100798.31;;;24.53;37.79
68822;BME280;55834;50.870;4.606;2023-07-08T06:42:56;100794.25;;;24.68;37.39
68822;BME280;55834;50.870;4.606;2023-07-08T06:45:22;100795.28;;;24.77;36.50
68822;BME280;55834;50.870;4.606;2023-07-08T06:47:47;100794.63;;;24.85;37.26
68822;BME280;55834;50.870;4.606;2023-07-08T06:50:13;100798.94;;;24.97;36.58
68822;BME280;55834;50.870;4.606;2023-07-08T06:52:40;100804.94;;;25.01;36.91
68822;BME280;55834;50.870;4.606;2023-07-08T06:55:12;100816.25;;;25.15;36.91
68822;BME280;55834;50.870;4.606;2023-07-08T06:57:43;100832.38;;;25.27;36.67
68822;BME280;55834;50.870;4.606;2023-07-08T07:00:14;100830.53;;;25.27;36.68
68822;BME280;55834;50.870;4.606;2023-07-08T07:02:48;100834.63;;;25.22;36.14
68822;BME280;55834;50.870;4.606;2023-07-08T07:05:16;100839.47;;;25.28;36.16
68822;BME280;55834;50.870;4.606;2023-07-08T07:07:45;100837.78;;;25.36;36.35
68822;BME280;55834;50.870;4.606;2023-07-08T07:10:10;100829.56;;;25.38;36.11
68822;BME280;55834;50.870;4.606;2023-07-08T07:12:38;100833.13;;;25.48;36.36
68822;BME280;55834;50.870;4.606;2023-07-08T07:15:06;100830.44;;;25.48;35.49
68822;BME280;55834;50.870;4.606;2023-07-08T07:17:32;100826.19;;;25.55;34.80
68822;BME280;55834;50.870;4.606;2023-07-08T07:19:57;100810.00;;;25.65;35.04
68822;BME280;55834;50.870;4.606;2023-07-08T07:22:23;100814.44;;;25.76;33.51
68822;BME280;55834;50.870;4.606;2023-07-08T07:24:49;100815.72;;;25.91;34.46
68822;BME280;55834;50.870;4.606;2023-07-08T07:27:17;100818.88;;;25.96;34.57
68822;BME280;55834;50.870;4.606;2023-07-08T07:29:49;100816.84;;;25.88;34.33
68822;BME280;55834;50.870;4.606;2023-07-08T07:32:24;100817.84;;;25.97;33.80
68822;BME280;55834;50.870;4.606;2023-07-08T07:34:51;100815.75;;;26.20;33.76
68822;BME280;55834;50.870;4.606;2023-07-08T07:37:27;100811.31;;;26.29;33.39
68822;BME280;55834;50.870;4.606;2023-07-08T07:39:55;100819.25;;;26.50;34.16
68822;BME280;55834;50.870;4.606;2023-07-08T07:42:20;100821.78;;;26.61;34.67
68822;BME280;55834;50.870;4.606;2023-07-08T07:44:56;100831.47;;;26.73;34.73
68822;BME280;55834;50.870;4.606;2023-07-08T07:47:22;100826.94;;;26.74;33.39
68822;BME280;55834;50.870;4.606;2023-07-08T07:49:47;100816.94;;;26.65;33.92
68822;BME280;55834;50.870;4.606;2023-07-08T07:52:15;100810.69;;;26.74;32.97
68822;BME280;55834;50.870;4.606;2023-07-08T07:54:44;100815.34;;;26.91;33.87
68822;BME280;55834;50.870;4.606;2023-07-08T07:57:09;100826.78;;;27.13;33.70
68822;BME280;55834;50.870;4.606;2023-07-08T07:59:35;100822.63;;;27.18;33.69
68822;BME280;55834;50.870;4.606;2023-07-08T08:02:03;100820.44;;;27.22;33.77
68822;BME280;55834;50.870;4.606;2023-07-08T08:04:28;100814.13;;;27.41;34.38
68822;BME280;55834;50.870;4.606;2023-07-08T08:06:58;100811.88;;;27.54;34.18
68822;BME280;55834;50.870;4.606;2023-07-08T08:09:24;100817.00;;;27.57;31.97
68822;BME280;55834;50.870;4.606;2023-07-08T08:11:49;100828.75;;;27.48;33.58
68822;BME280;55834;50.870;4.606;2023-07-08T08:14:27;100840.16;;;27.52;32.98
68822;BME280;55834;50.870;4.606;2023-07-08T08:16:55;100830.00;;;27.54;33.26
68822;BME280;55834;50.870;4.606;2023-07-08T08:19:21;100829.41;;;27.60;31.54
68822;BME280;55834;50.870;4.606;2023-07-08T08:21:50;100820.66;;;27.66;31.93
68822;BME280;55834;50.870;4.606;2023-07-08T08:24:16;100825.91;;;27.50;31.98
68822;BME280;55834;50.870;4.606;2023-07-08T08:26:44;100830.88;;;27.72;31.40
68822;BME280;55834;50.870;4.606;2023-07-08T08:29:10;100826.69;;;27.78;30.81
68822;BME280;55834;50.870;4.606;2023-07-08T08:31:38;100825.88;;;27.95;30.83
68822;BME280;55834;50.870;4.606;2023-07-08T08:34:03;100824.56;;;27.99;31.14
68822;BME280;55834;50.870;4.606;2023-07-08T08:36:29;100834.50;;;27.91;29.22
68822;BME280;55834;50.870;4.606;2023-07-08T08:38:57;100831.00;;;27.80;29.87
68822;BME280;55834;50.870;4.606;2023-07-08T08:41:31;100825.56;;;27.98;32.24
68822;BME280;55834;50.870;4.606;2023-07-08T08:43:57;100824.13;;;28.30;31.39
68822;BME280;55834;50.870;4.606;2023-07-08T08:49:27;100837.09;;;28.18;31.79
68822;BME280;55834;50.870;4.606;2023-07-08T08:52:00;100836.19;;;28.45;31.43
68822;BME280;55834;50.870;4.606;2023-07-08T08:54:26;100828.84;;;28.64;31.46
68822;BME280;55834;50.870;4.606;2023-07-08T08:57:00;100833.91;;;28.85;31.02
68822;BME280;55834;50.870;4.606;2023-07-08T08:59:43;100826.00;;;28.91;30.93
68822;BME280;55834;50.870;4.606;2023-07-08T09:02:34;100826.56;;;28.51;30.28
68822;BME280;55834;50.870;4.606;2023-07-08T09:05:04;100824.09;;;28.40;32.18
68822;BME280;55834;50.870;4.606;2023-07-08T09:07:38;100827.09;;;28.54;30.74
68822;BME280;55834;50.870;4.606;2023-07-08T09:10:23;100828.22;;;28.08;31.03
68822;BME280;55834;50.870;4.606;2023-07-08T09:12:55;100827.66;;;28.66;31.83
68822;BME280;55834;50.870;4.606;2023-07-08T09:15:28;100828.91;;;28.98;30.69
68822;BME280;55834;50.870;4.606;2023-07-08T09:18:01;100830.34;;;29.18;29.28
68822;BME280;55834;50.870;4.606;2023-07-08T09:20:36;100824.88;;;29.44;29.29
68822;BME280;55834;50.870;4.606;2023-07-08T09:23:18;100833.75;;;29.55;28.40
68822;BME280;55834;50.870;4.606;2023-07-08T09:25:51;100838.69;;;29.67;29.17
68822;BME280;55834;50.870;4.606;2023-07-08T09:28:18;100834.75;;;29.54;26.88
68822;BME280;55834;50.870;4.606;2023-07-08T09:30:53;100836.63;;;29.53;27.41
68822;BME280;55834;50.870;4.606;2023-07-08T09:33:24;100839.84;;;29.14;28.39
68822;BME280;55834;50.870;4.606;2023-07-08T09:35:49;100839.00;;;29.56;28.71
68822;BME280;55834;50.870;4.606;2023-07-08T09:38:17;100840.59;;;29.75;29.13
68822;BME280;55834;50.870;4.606;2023-07-08T09:40:53;100843.91;;;29.95;27.11
68822;BME280;55834;50.870;4.606;2023-07-08T09:43:28;100834.88;;;29.86;27.93
68822;BME280;55834;50.870;4.606;2023-07-08T09:46:01;100836.41;;;30.05;28.86
68822;BME280;55834;50.870;4.606;2023-07-08T09:48:36;100834.38;;;29.06;27.77
68822;BME280;55834;50.870;4.606;2023-07-08T09:51:02;100835.97;;;29.67;28.95
68822;BME280;55834;50.870;4.606;2023-07-08T09:53:28;100823.47;;;29.99;29.90
68822;BME280;55834;50.870;4.606;2023-07-08T09:55:59;100824.84;;;30.20;28.04
68822;BME280;55834;50.870;4.606;2023-07-08T09:58:32;100832.31;;;30.34;28.42
68822;BME280;55834;50.870;4.606;2023-07-08T10:01:10;100824.53;;;30.47;28.23
68822;BME280;55834;50.870;4.606;2023-07-08T10:03:36;100830.09;;;30.62;28.44
68822;BME280;55834;50.870;4.606;2023-07-08T10:06:05;100828.91;;;30.65;27.12
68822;BME280;55834;50.870;4.606;2023-07-08T10:08:41;100834.66;;;30.70;28.15
68822;BME280;55834;50.870;4.606;2023-07-08T10:13:45;100830.63;;;30.49;24.15
68822;BME280;55834;50.870;4.606;2023-07-08T10:16:27;100842.88;;;30.21;28.44
68822;BME280;55834;50.870;4.606;2023-07-08T10:18:54;100836.88;;;29.84;25.95
68822;BME280;55834;50.870;4.606;2023-07-08T10:26:46;100828.38;;;30.61;26.65
68822;BME280;55834;50.870;4.606;2023-07-08T10:29:24;100835.84;;;30.92;26.12
68822;BME280;55834;50.870;4.606;2023-07-08T10:32:08;100829.44;;;31.16;26.51
68822;BME280;55834;50.870;4.606;2023-07-08T10:34:49;100835.94;;;31.15;26.58
68822;BME280;55834;50.870;4.606;2023-07-08T10:38:13;100830.09;;;31.34;27.82
68822;BME280;55834;50.870;4.606;2023-07-08T11:02:39;100843.53;;;31.36;26.91
68822;BME280;55834;50.870;4.606;2023-07-08T11:05:26;100842.69;;;31.35;26.59
68822;BME280;55834;50.870;4.606;2023-07-08T11:08:11;100845.06;;;31.30;27.43
68822;BME280;55834;50.870;4.606;2023-07-08T11:11:03;100841.50;;;31.38;26.19
68822;BME280;55834;50.870;4.606;2023-07-08T11:14:06;100841.31;;;31.31;27.21
68822;BME280;55834;50.870;4.606;2023-07-08T11:16:36;100836.44;;;31.18;25.19
68822;BME280;55834;50.870;4.606;2023-07-08T11:19:09;100832.19;;;31.55;25.04
68822;BME280;55834;50.870;4.606;2023-07-08T11:21:46;100843.91;;;31.64;27.60
68822;BME280;55834;50.870;4.606;2023-07-08T11:24:28;100841.22;;;31.87;26.45
68822;BME280;55834;50.870;4.606;2023-07-08T11:29:48;100838.88;;;31.76;25.81
68822;BME280;55834;50.870;4.606;2023-07-08T11:32:19;100844.97;;;31.86;26.17
68822;BME280;55834;50.870;4.606;2023-07-08T11:34:48;100846.19;;;31.52;24.91
68822;BME280;55834;50.870;4.606;2023-07-08T11:37:15;100837.72;;;31.70;26.45
68822;BME280;55834;50.870;4.606;2023-07-08T11:39:47;100832.06;;;31.49;23.31
68822;BME280;55834;50.870;4.606;2023-07-08T11:42:51;100829.91;;;31.67;26.79
68822;BME280;55834;50.870;4.606;2023-07-08T11:45:30;100830.09;;;31.88;25.72
68822;BME280;55834;50.870;4.606;2023-07-08T11:50:54;100826.13;;;31.68;26.34
68822;BME280;55834;50.870;4.606;2023-07-08T11:53:46;100812.28;;;32.01;25.65
68822;BME280;55834;50.870;4.606;2023-07-08T11:56:22;100819.75;;;31.84;26.75
68822;BME280;55834;50.870;4.606;2023-07-08T12:01:27;100805.06;;;32.08;27.51
68822;BME280;55834;50.870;4.606;2023-07-08T12:09:25;100784.19;;;30.98;24.98
68822;BME280;55834;50.870;4.606;2023-07-08T12:11:59;100788.53;;;31.86;26.28
68822;BME280;55834;50.870;4.606;2023-07-08T12:14:25;100790.72;;;32.06;26.48
68822;BME280;55834;50.870;4.606;2023-07-08T12:16:58;100795.06;;;32.38;25.81
68822;BME280;55834;50.870;4.606;2023-07-08T12:19:27;100792.84;;;32.56;25.39
68822;BME280;55834;50.870;4.606;2023-07-08T12:21:57;100791.78;;;32.72;24.81
68822;BME280;55834;50.870;4.606;2023-07-08T12:24:22;100791.03;;;32.64;24.71
68822;BME280;55834;50.870;4.606;2023-07-08T12:26:51;100789.47;;;32.84;25.43
68822;BME280;55834;50.870;4.606;2023-07-08T12:29:22;100785.34;;;32.88;25.01
68822;BME280;55834;50.870;4.606;2023-07-08T12:31:55;100787.09;;;32.96;25.06
68822;BME280;55834;50.870;4.606;2023-07-08T12:34:23;100790.09;;;32.71;23.69
68822;BME280;55834;50.870;4.606;2023-07-08T12:36:53;100803.25;;;32.38;25.62
68822;BME280;55834;50.870;4.606;2023-07-08T12:39:19;100802.31;;;32.08;24.78
68822;BME280;55834;50.870;4.606;2023-07-08T12:41:45;100805.91;;;31.85;26.03
68822;BME280;55834;50.870;4.606;2023-07-08T12:44:28;100807.34;;;31.73;25.51
68822;BME280;55834;50.870;4.606;2023-07-08T12:47:01;100809.22;;;31.73;26.85
68822;BME280;55834;50.870;4.606;2023-07-08T12:49:29;100847.78;;;31.38;26.32
68822;BME280;55834;50.870;4.606;2023-07-08T12:52:00;100867.22;;;29.55;29.66
68822;BME280;55834;50.870;4.606;2023-07-08T12:54:28;100888.13;;;28.68;31.75
68822;BME280;55834;50.870;4.606;2023-07-08T12:56:54;100899.56;;;27.73;33.05
68822;BME280;55834;50.870;4.606;2023-07-08T12:59:19;100879.59;;;26.99;33.62
68822;BME280;55834;50.870;4.606;2023-07-08T13:01:47;100877.81;;;27.55;31.52
68822;BME280;55834;50.870;4.606;2023-07-08T13:04:14;100889.31;;;27.39;31.20
68822;BME280;55834;50.870;4.606;2023-07-08T13:06:44;100893.69;;;27.12;31.46
68822;BME280;55834;50.870;4.606;2023-07-08T13:11:52;100912.47;;;26.28;33.97
68822;BME280;55834;50.870;4.606;2023-07-08T13:14:22;100900.47;;;26.21;36.13
68822;BME280;55834;50.870;4.606;2023-07-08T13:16:47;100912.88;;;25.63;38.58
68822;BME280;55834;50.870;4.606;2023-07-08T13:19:14;100923.03;;;25.81;39.15
68822;BME280;55834;50.870;4.606;2023-07-08T13:21:40;100927.78;;;25.27;40.60
68822;BME280;55834;50.870;4.606;2023-07-08T13:24:10;100918.03;;;25.46;40.10
68822;BME280;55834;50.870;4.606;2023-07-08T13:26:36;100905.53;;;25.85;39.81
68822;BME280;55834;50.870;4.606;2023-07-08T13:29:14;100896.50;;;26.15;40.07
68822;BME280;55834;50.870;4.606;2023-07-08T13:31:48;100884.19;;;25.82;42.03
68822;BME280;55834;50.870;4.606;2023-07-08T13:34:19;100867.88;;;26.22;38.97
68822;BME280;55834;50.870;4.606;2023-07-08T13:36:50;100870.09;;;26.75;40.52
68822;BME280;55834;50.870;4.606;2023-07-08T13:39:30;100865.03;;;27.10;39.51
68822;BME280;55834;50.870;4.606;2023-07-08T13:41:57;100863.88;;;27.50;39.84
68822;BME280;55834;50.870;4.606;2023-07-08T13:44:23;100867.47;;;27.68;38.97
68822;BME280;55834;50.870;4.606;2023-07-08T13:46:57;100870.72;;;27.72;40.90
68822;BME280;55834;50.870;4.606;2023-07-08T13:49:29;100867.97;;;27.54;38.26
68822;BME280;55834;50.870;4.606;2023-07-08T13:52:13;100874.19;;;26.99;40.17
68822;BME280;55834;50.870;4.606;2023-07-08T13:54:50;100871.41;;;26.71;38.78